createdAt,value
2022-08-28T00:00:41.880Z,22.59
2022-08-28T00:03:10.937Z,22.66
2022-08-28T00:05:39.913Z,22.84
2022-08-28T00:08:09.732Z,22.78
2022-08-28T00:10:39.383Z,22.58
2022-08-28T00:13:08.222Z,22.59
2022-08-28T00:15:38.080Z,22.53
2022-08-28T00:18:06.464Z,22.57
2022-08-28T00:20:34.844Z,22.46
2022-08-28T00:23:02.346Z,22.82
2022-08-28T00:25:31.186Z,22.89
2022-08-28T00:28:00.863Z,23.19
2022-08-28T00:30:33.728Z,23.01
2022-08-28T00:33:08.301Z,23.03
2022-08-28T00:35:40.187Z,23.22
2022-08-28T00:38:10.097Z,23.21
2022-08-28T00:40:37.820Z,23.34
2022-08-28T00:43:07.142Z,22.97
2022-08-28T00:45:39.611Z,22.71
2022-08-28T00:48:07.993Z,22.72
2022-08-28T00:51:00.284Z,22.18
2022-08-28T00:53:30.062Z,22.38
2022-08-28T00:56:04.109Z,22.37
2022-08-28T00:58:34.334Z,22.37
2022-08-28T01:01:01.624Z,22.34
2022-08-28T01:03:28.707Z,22.37
2022-08-28T01:05:56.003Z,22.04
2022-08-28T01:08:23.107Z,21.85
2022-08-28T01:10:55.349Z,22.17
2022-08-28T01:13:26.047Z,22.29
2022-08-28T01:15:54.062Z,22.75
2022-08-28T01:18:22.185Z,23.12
2022-08-28T01:21:01.892Z,23.04
2022-08-28T01:23:55.582Z,22.79
2022-08-28T01:26:23.044Z,22.77
2022-08-28T01:28:50.145Z,22.50
2022-08-28T01:31:17.706Z,22.23
2022-08-28T01:33:46.243Z,22.37
2022-08-28T01:36:14.790Z,22.34
2022-08-28T01:38:45.376Z,22.60
2022-08-28T01:41:14.121Z,22.60
2022-08-28T01:43:43.074Z,22.28
2022-08-28T01:46:12.347Z,22.48
2022-08-28T01:48:42.748Z,22.40
2022-08-28T01:51:10.731Z,22.48
2022-08-28T01:53:38.385Z,22.65
2022-08-28T01:56:12.649Z,22.64
2022-08-28T01:58:40.578Z,22.66
2022-08-28T02:01:12.681Z,22.67
2022-08-28T02:03:40.029Z,22.49
2022-08-28T02:06:07.319Z,22.50
2022-08-28T02:08:34.308Z,22.41
2022-08-28T02:11:01.325Z,22.45
2022-08-28T02:13:28.418Z,22.56
2022-08-28T02:15:55.455Z,22.52
2022-08-28T02:18:22.839Z,22.67
2022-08-28T02:20:49.833Z,22.50
2022-08-28T02:23:16.971Z,22.76
2022-08-28T02:25:43.909Z,22.96
2022-08-28T02:30:38.554Z,22.70
2022-08-28T02:33:05.579Z,21.98
2022-08-28T02:35:32.701Z,21.98
2022-08-28T02:38:00.459Z,21.77
2022-08-28T02:40:28.182Z,21.77
2022-08-28T02:42:55.370Z,21.96
2022-08-28T02:45:22.382Z,22.06
2022-08-28T02:47:52.550Z,22.09
2022-08-28T02:50:19.948Z,22.10
2022-08-28T02:52:47.107Z,22.06
2022-08-28T02:55:17.167Z,22.13
2022-08-28T02:57:44.855Z,21.57
2022-08-28T03:00:16.385Z,21.64
2022-08-28T03:02:45.681Z,21.71
2022-08-28T03:05:15.543Z,22.04
2022-08-28T03:07:42.887Z,22.11
2022-08-28T03:10:11.138Z,22.15
2022-08-28T03:12:38.747Z,22.26
2022-08-28T03:15:07.909Z,22.10
2022-08-28T03:17:37.028Z,21.80
2022-08-28T03:20:08.930Z,21.50
2022-08-28T03:22:54.258Z,21.08
2022-08-28T03:25:22.519Z,21.11
2022-08-28T03:27:49.860Z,21.12
2022-08-28T03:30:17.569Z,21.38
2022-08-28T03:32:44.658Z,21.50
2022-08-28T03:35:12.325Z,21.48
2022-08-28T03:37:39.354Z,21.25
2022-08-28T03:40:08.425Z,21.10
2022-08-28T03:42:35.418Z,20.73
2022-08-28T03:45:02.572Z,20.53
2022-08-28T03:47:29.666Z,20.39
2022-08-28T03:49:58.278Z,20.89
2022-08-28T03:52:25.290Z,21.09
2022-08-28T03:54:52.896Z,21.09
2022-08-28T03:57:21.754Z,21.24
2022-08-28T03:59:50.975Z,21.25
2022-08-28T04:02:20.695Z,21.59
2022-08-28T04:04:49.904Z,22.00
2022-08-28T04:07:19.076Z,22.23
2022-08-28T04:09:46.850Z,22.14
2022-08-28T04:12:14.590Z,21.47
2022-08-28T04:14:41.540Z,21.28
2022-08-28T04:17:08.814Z,21.50
2022-08-28T04:19:36.067Z,21.62
2022-08-28T04:22:03.042Z,21.69
2022-08-28T04:24:30.011Z,21.77
2022-08-28T04:26:57.083Z,21.93
2022-08-28T04:29:24.118Z,21.75
2022-08-28T04:31:51.159Z,22.13
2022-08-28T04:34:18.302Z,21.96
2022-08-28T04:36:46.204Z,21.64
2022-08-28T04:39:13.628Z,21.33
2022-08-28T04:41:40.821Z,21.64
2022-08-28T04:44:08.639Z,22.14
2022-08-28T04:46:36.929Z,22.31
2022-08-28T04:49:04.531Z,22.13
2022-08-28T04:51:32.327Z,22.42
2022-08-28T04:53:59.818Z,22.74
2022-08-28T04:56:27.200Z,22.91
2022-08-28T04:58:54.714Z,23.04
2022-08-28T05:01:24.710Z,23.48
2022-08-28T05:03:57.811Z,23.65
2022-08-28T05:06:27.101Z,24.02
2022-08-28T05:08:57.484Z,24.41
2022-08-28T05:11:34.069Z,24.61
2022-08-28T05:14:09.631Z,24.85
2022-08-28T05:16:57.634Z,25.48
2022-08-28T05:19:27.136Z,25.95
2022-08-28T05:21:54.399Z,26.38
2022-08-28T05:24:22.386Z,26.74
2022-08-28T05:26:49.552Z,27.20
2022-08-28T05:29:17.053Z,27.88
2022-08-28T05:31:44.417Z,27.80
2022-08-28T05:34:13.742Z,28.04
2022-08-28T05:36:40.951Z,28.55
2022-08-28T05:39:11.235Z,28.47
2022-08-28T05:41:41.018Z,28.38
2022-08-28T05:44:11.045Z,28.42
2022-08-28T05:46:40.831Z,28.04
2022-08-28T05:49:10.311Z,28.30
2022-08-28T05:51:40.421Z,28.80
2022-08-28T05:54:07.599Z,28.27
2022-08-28T05:56:37.542Z,28.67
2022-08-28T05:59:06.038Z,28.57
2022-08-28T06:01:37.301Z,28.53
2022-08-28T06:04:17.868Z,28.99
2022-08-28T06:06:45.363Z,28.97
2022-08-28T06:09:16.595Z,29.05
2022-08-28T06:11:46.093Z,29.46
2022-08-28T06:14:15.779Z,29.48
2022-08-28T06:16:47.172Z,30.28
2022-08-28T06:19:14.637Z,30.37
2022-08-28T06:21:41.780Z,30.41
2022-08-28T06:24:10.326Z,30.42
2022-08-28T06:26:37.281Z,30.53
2022-08-28T06:29:07.935Z,30.69
2022-08-28T06:31:35.230Z,30.32
2022-08-28T06:34:02.397Z,30.86
2022-08-28T06:36:31.766Z,31.16
2022-08-28T06:39:00.248Z,31.48
2022-08-28T06:41:28.049Z,31.82
2022-08-28T06:43:57.158Z,31.77
2022-08-28T06:46:25.286Z,31.88
2022-08-28T06:48:52.957Z,31.99
2022-08-28T06:51:20.227Z,32.69
2022-08-28T06:53:50.085Z,32.56
2022-08-28T06:56:26.886Z,33.25
2022-08-28T06:58:56.961Z,33.37
2022-08-28T07:01:33.393Z,34.01
2022-08-28T07:04:18.487Z,34.01
2022-08-28T07:06:47.134Z,34.35
2022-08-28T07:09:15.437Z,34.68
2022-08-28T07:11:46.747Z,34.43
2022-08-28T07:14:13.773Z,35.24
2022-08-28T07:16:41.362Z,35.67
2022-08-28T07:19:10.445Z,35.62
2022-08-28T07:21:40.057Z,36.07
2022-08-28T07:24:09.262Z,36.36
2022-08-28T07:26:36.783Z,36.78
2022-08-28T07:29:10.128Z,37.42
2022-08-28T07:31:41.283Z,37.13
2022-08-28T07:34:10.522Z,37.05
2022-08-28T07:36:38.323Z,36.53
2022-08-28T07:39:05.920Z,36.37
2022-08-28T07:41:35.600Z,35.70
2022-08-28T07:44:21.300Z,35.76
2022-08-28T07:46:48.222Z,35.83
2022-08-28T07:49:18.442Z,36.27
2022-08-28T07:51:46.786Z,36.67
2022-08-28T07:54:15.676Z,36.47
2022-08-28T07:56:46.048Z,36.62
2022-08-28T07:59:16.682Z,36.09
2022-08-28T08:01:46.765Z,36.48
2022-08-28T08:04:16.391Z,37.43
2022-08-28T08:06:44.025Z,38.20
2022-08-28T08:09:13.579Z,38.72
2022-08-28T08:11:40.705Z,40.52
2022-08-28T08:14:08.495Z,40.17
2022-08-28T08:16:39.076Z,38.17
2022-08-28T08:19:09.987Z,39.26
2022-08-28T08:21:38.236Z,39.91
2022-08-28T08:24:05.736Z,39.85
2022-08-28T08:26:33.214Z,39.75
2022-08-28T08:29:00.422Z,40.20
2022-08-28T08:31:32.763Z,39.85
2022-08-28T08:34:02.651Z,38.51
2022-08-28T08:36:32.366Z,38.19
2022-08-28T08:39:00.506Z,37.95
2022-08-28T08:41:51.926Z,37.51
2022-08-28T08:44:40.253Z,36.99
2022-08-28T08:47:14.144Z,36.90
2022-08-28T08:49:56.247Z,37.05
2022-08-28T08:52:34.844Z,36.90
2022-08-28T08:55:25.881Z,36.90
2022-08-28T08:58:08.868Z,36.89
2022-08-28T09:00:51.061Z,36.24
2022-08-28T09:03:25.737Z,36.36
2022-08-28T09:05:58.355Z,36.80
2022-08-28T09:08:48.128Z,35.80
2022-08-28T09:11:40.517Z,35.62
2022-08-28T09:14:10.553Z,35.85
2022-08-28T09:16:42.508Z,35.61
2022-08-28T09:19:14.920Z,35.70
2022-08-28T09:21:44.910Z,35.75
2022-08-28T09:24:32.631Z,36.07
2022-08-28T09:27:11.071Z,35.58
2022-08-28T09:29:47.406Z,35.48
2022-08-28T09:32:21.788Z,35.69
2022-08-28T09:35:28.017Z,35.52
2022-08-28T09:37:56.463Z,35.07
2022-08-28T09:40:47.678Z,35.23
2022-08-28T09:43:28.361Z,35.69
2022-08-28T09:46:01.593Z,35.45
2022-08-28T09:48:40.588Z,36.22
2022-08-28T09:51:27.040Z,35.11
2022-08-28T09:53:59.484Z,35.53
2022-08-28T09:56:35.692Z,35.73
2022-08-28T09:59:07.003Z,35.86
2022-08-28T10:01:46.493Z,36.03
2022-08-28T10:04:34.710Z,35.18
2022-08-28T10:07:20.216Z,35.66
2022-08-28T10:10:36.680Z,35.74
2022-08-28T10:13:31.379Z,35.61
2022-08-28T10:16:23.119Z,35.22
2022-08-28T10:19:10.508Z,34.93
2022-08-28T10:21:50.899Z,35.19
2022-08-28T10:24:47.248Z,35.40
2022-08-28T10:27:51.567Z,35.64
2022-08-28T10:30:22.993Z,36.02
2022-08-28T10:32:58.337Z,35.93
2022-08-28T10:35:45.211Z,36.16
2022-08-28T10:38:16.937Z,35.57
2022-08-28T10:41:21.626Z,35.28
2022-08-28T10:43:49.881Z,34.69
2022-08-28T10:46:25.274Z,34.89
2022-08-28T10:49:06.972Z,34.80
2022-08-28T10:51:43.624Z,35.02
2022-08-28T10:54:37.192Z,35.16
2022-08-28T10:57:25.770Z,35.36
2022-08-28T10:59:54.318Z,35.17
2022-08-28T11:02:24.588Z,34.93
2022-08-28T11:04:58.231Z,34.95
2022-08-28T11:07:40.439Z,35.37
2022-08-28T11:10:45.647Z,35.51
2022-08-28T11:13:13.480Z,35.18
2022-08-28T11:15:52.381Z,35.47
2022-08-28T11:18:31.879Z,35.54
2022-08-28T11:21:04.953Z,36.06
2022-08-28T11:23:47.837Z,35.68
2022-08-28T11:26:28.981Z,34.87
2022-08-28T11:28:56.189Z,34.71
2022-08-28T11:31:31.812Z,34.01
2022-08-28T11:34:00.264Z,34.30
2022-08-28T11:36:29.420Z,34.22
2022-08-28T11:38:56.439Z,34.09
2022-08-28T11:41:24.480Z,34.06
2022-08-28T11:44:09.709Z,34.31
2022-08-28T11:46:39.593Z,35.36
2022-08-28T11:49:26.680Z,35.82
2022-08-28T11:52:03.691Z,36.29
2022-08-28T11:54:37.828Z,36.63
2022-08-28T11:57:14.336Z,37.21
2022-08-28T12:00:22.768Z,36.51
2022-08-28T12:03:08.978Z,37.10
2022-08-28T12:05:40.217Z,37.07
2022-08-28T12:08:09.219Z,36.01
2022-08-28T12:10:38.947Z,36.20
2022-08-28T12:13:08.153Z,36.11
2022-08-28T12:15:35.174Z,36.50
2022-08-28T12:18:05.245Z,36.96
2022-08-28T12:20:50.352Z,37.05
2022-08-28T12:23:40.552Z,35.39
2022-08-28T12:26:07.487Z,35.69
2022-08-28T12:28:45.196Z,36.27
2022-08-28T12:32:01.253Z,36.81
2022-08-28T12:34:53.090Z,35.94
2022-08-28T12:37:50.966Z,36.42
2022-08-28T12:40:37.339Z,35.82
2022-08-28T12:43:10.332Z,35.47
2022-08-28T12:46:19.019Z,35.65
2022-08-28T12:48:51.674Z,34.90
2022-08-28T12:51:31.000Z,35.24
2022-08-28T12:54:00.926Z,34.48
2022-08-28T12:56:34.113Z,33.96
2022-08-28T12:59:35.315Z,33.77
2022-08-28T13:02:05.900Z,33.07
2022-08-28T13:04:35.143Z,32.94
2022-08-28T13:07:14.115Z,34.19
2022-08-28T13:09:52.794Z,33.96
2022-08-28T13:12:55.145Z,34.05
2022-08-28T13:15:48.900Z,34.20
2022-08-28T13:18:39.415Z,34.19
2022-08-28T13:21:32.820Z,34.12
2022-08-28T13:24:21.451Z,33.85
2022-08-28T13:26:50.844Z,33.89
2022-08-28T13:29:23.361Z,34.19
2022-08-28T13:32:15.093Z,33.65
2022-08-28T13:34:46.040Z,33.33
2022-08-28T13:37:54.435Z,34.12
2022-08-28T13:43:15.678Z,33.45
2022-08-28T13:45:45.996Z,33.27
2022-08-28T13:48:19.308Z,33.39
2022-08-28T13:50:51.804Z,32.68
2022-08-28T13:53:20.840Z,32.41
2022-08-28T13:55:49.846Z,32.46
2022-08-28T13:58:17.251Z,32.95
2022-08-28T14:00:47.612Z,32.90
2022-08-28T14:03:33.516Z,32.38
2022-08-28T14:06:00.968Z,31.91
2022-08-28T14:08:27.903Z,32.20
2022-08-28T14:10:55.066Z,31.90
2022-08-28T14:13:23.419Z,31.74
2022-08-28T14:15:50.346Z,32.17
2022-08-28T14:18:18.263Z,32.20
2022-08-28T14:20:45.188Z,32.33
2022-08-28T14:23:12.602Z,32.39
2022-08-28T14:25:44.782Z,32.26
2022-08-28T14:28:14.454Z,31.49
2022-08-28T14:30:46.128Z,31.17
2022-08-28T14:33:15.418Z,31.38
2022-08-28T14:35:42.840Z,31.71
2022-08-28T14:38:09.936Z,31.63
2022-08-28T14:40:42.902Z,31.99
2022-08-28T14:43:11.513Z,31.99
2022-08-28T14:45:46.720Z,31.86
2022-08-28T14:48:15.809Z,32.02
2022-08-28T14:50:44.430Z,31.87
2022-08-28T14:53:13.792Z,31.73
2022-08-28T14:55:46.317Z,31.47
2022-08-28T14:58:14.436Z,31.54
2022-08-28T15:00:44.770Z,31.49
2022-08-28T15:03:12.547Z,31.80
2022-08-28T15:05:41.226Z,31.66
2022-08-28T15:08:09.912Z,31.67
2022-08-28T15:10:42.367Z,31.74
2022-08-28T15:13:10.797Z,31.55
2022-08-28T15:15:42.654Z,31.46
2022-08-28T15:18:11.799Z,31.38
2022-08-28T15:20:41.484Z,31.65
2022-08-28T15:23:09.846Z,31.26
2022-08-28T15:25:37.078Z,31.22
2022-08-28T15:28:04.567Z,31.20
2022-08-28T15:30:31.713Z,31.39
2022-08-28T15:32:58.743Z,30.77
2022-08-28T15:35:25.685Z,30.48
2022-08-28T15:37:53.655Z,30.88
2022-08-28T15:40:40.281Z,30.99
2022-08-28T15:43:07.456Z,30.65
2022-08-28T15:45:38.603Z,30.55
2022-08-28T15:48:05.931Z,30.66
2022-08-28T15:50:33.027Z,30.58
2022-08-28T15:53:00.131Z,30.77
2022-08-28T15:55:27.533Z,30.87
2022-08-28T15:57:55.277Z,30.60
2022-08-28T16:00:23.226Z,30.77
2022-08-28T16:02:50.216Z,30.73
2022-08-28T16:05:17.667Z,30.50
2022-08-28T16:07:44.938Z,30.18
2022-08-28T16:10:13.903Z,30.01
2022-08-28T16:12:41.246Z,29.96
2022-08-28T16:15:09.111Z,29.66
2022-08-28T16:17:36.367Z,29.42
2022-08-28T16:20:12.268Z,29.22
2022-08-28T16:22:41.267Z,28.88
2022-08-28T16:25:09.830Z,28.20
2022-08-28T16:27:36.746Z,28.05
2022-08-28T16:30:05.679Z,28.16
2022-08-28T16:32:32.907Z,28.19
2022-08-28T16:34:59.837Z,27.84
2022-08-28T16:37:39.777Z,27.89
2022-08-28T16:40:08.971Z,28.06
2022-08-28T16:42:36.418Z,28.20
2022-08-28T16:45:04.760Z,28.28
2022-08-28T16:47:33.314Z,28.49
2022-08-28T16:50:02.260Z,28.04
2022-08-28T16:52:29.188Z,28.17
2022-08-28T16:54:56.137Z,28.05
2022-08-28T16:57:23.879Z,27.89
2022-08-28T16:59:53.072Z,28.02
2022-08-28T17:02:26.672Z,28.10
2022-08-28T17:04:56.087Z,27.97
2022-08-28T17:07:23.148Z,27.94
2022-08-28T17:09:50.106Z,28.17
2022-08-28T17:12:17.388Z,28.08
2022-08-28T17:14:45.035Z,28.19
2022-08-28T17:17:12.194Z,28.18
2022-08-28T17:19:39.736Z,28.36
2022-08-28T17:22:27.343Z,28.42
2022-08-28T17:24:54.962Z,28.29
2022-08-28T17:27:23.602Z,28.49
2022-08-28T17:29:50.738Z,28.31
2022-08-28T17:32:17.771Z,28.15
2022-08-28T17:34:45.131Z,28.05
2022-08-28T17:37:12.159Z,28.18
2022-08-28T17:39:39.276Z,28.24
2022-08-28T17:42:06.331Z,28.02
2022-08-28T17:44:35.279Z,27.98
2022-08-28T17:47:02.597Z,28.16
2022-08-28T17:49:29.762Z,28.24
2022-08-28T17:51:57.043Z,28.19
2022-08-28T17:54:24.535Z,27.77
2022-08-28T17:56:55.922Z,27.79
2022-08-28T17:59:24.910Z,28.06
2022-08-28T18:01:52.185Z,27.96
2022-08-28T18:04:24.193Z,27.42
2022-08-28T18:06:54.508Z,27.53
2022-08-28T18:09:22.863Z,27.47
2022-08-28T18:11:50.509Z,27.66
2022-08-28T18:14:17.635Z,27.89
2022-08-28T18:16:45.195Z,28.13
2022-08-28T18:19:13.947Z,28.10
2022-08-28T18:21:41.395Z,28.20
2022-08-28T18:24:09.296Z,28.15
2022-08-28T18:26:36.910Z,28.09
2022-08-28T18:29:04.280Z,28.09
2022-08-28T18:31:32.365Z,28.01
2022-08-28T18:33:59.603Z,28.16
2022-08-28T18:36:26.833Z,28.18
2022-08-28T18:38:54.195Z,28.18
2022-08-28T18:41:22.128Z,27.79
2022-08-28T18:43:57.889Z,27.65
2022-08-28T18:46:31.908Z,27.66
2022-08-28T18:48:59.469Z,27.63
2022-08-28T18:51:26.645Z,27.70
2022-08-28T18:53:53.873Z,27.66
2022-08-28T18:56:20.787Z,27.37
2022-08-28T18:58:48.961Z,27.52
2022-08-28T19:01:16.144Z,27.80
2022-08-28T19:03:43.232Z,27.62
2022-08-28T19:06:14.490Z,27.64
2022-08-28T19:08:42.215Z,27.59
2022-08-28T19:11:11.965Z,27.68
2022-08-28T19:13:40.113Z,27.50
2022-08-28T19:16:07.738Z,27.29
2022-08-28T19:18:34.928Z,27.25
2022-08-28T19:21:14.985Z,27.41
2022-08-28T19:23:44.604Z,27.18
2022-08-28T19:26:22.694Z,27.02
2022-08-28T19:28:50.681Z,27.21
2022-08-28T19:31:17.963Z,27.43
2022-08-28T19:33:47.134Z,27.67
2022-08-28T19:36:14.761Z,27.74
2022-08-28T19:38:42.449Z,27.66
2022-08-28T19:41:11.242Z,27.56
2022-08-28T19:43:42.733Z,27.08
2022-08-28T19:46:19.831Z,27.05
2022-08-28T19:48:52.405Z,26.95
2022-08-28T19:51:23.468Z,27.28
2022-08-28T19:53:57.407Z,27.00
2022-08-28T19:56:27.545Z,27.13
2022-08-28T19:58:59.268Z,27.42
2022-08-28T20:01:31.915Z,27.21
2022-08-28T20:03:59.713Z,27.11
2022-08-28T20:06:27.278Z,27.08
2022-08-28T20:08:54.301Z,26.69
2022-08-28T20:11:25.351Z,26.70
2022-08-28T20:13:59.218Z,26.60
2022-08-28T20:16:27.993Z,26.64
2022-08-28T20:18:55.826Z,26.49
2022-08-28T20:21:37.270Z,26.41
2022-08-28T20:24:11.829Z,26.78
2022-08-28T20:26:39.018Z,26.95
2022-08-28T20:29:08.633Z,26.94
2022-08-28T20:31:37.595Z,26.85
2022-08-28T20:34:04.634Z,26.77
2022-08-28T20:36:31.704Z,26.71
2022-08-28T20:38:58.697Z,26.39
2022-08-28T20:41:25.669Z,26.40
2022-08-28T20:43:52.889Z,26.55
2022-08-28T20:46:20.230Z,26.73
2022-08-28T20:48:47.436Z,26.79
2022-08-28T20:51:14.348Z,26.75
2022-08-28T20:53:41.299Z,26.74
2022-08-28T20:56:10.530Z,26.72
2022-08-28T20:58:38.133Z,26.64
2022-08-28T21:01:05.853Z,26.61
2022-08-28T21:03:32.978Z,26.39
2022-08-28T21:05:59.954Z,26.28
2022-08-28T21:08:26.892Z,26.21
2022-08-28T21:10:54.150Z,26.29
2022-08-28T21:13:21.848Z,26.37
2022-08-28T21:15:48.853Z,26.42
2022-08-28T21:18:16.071Z,25.74
2022-08-28T21:20:43.222Z,25.86
2022-08-28T21:23:10.585Z,25.87
2022-08-28T21:25:40.410Z,25.81
2022-08-28T21:28:07.576Z,25.87
2022-08-28T21:30:34.852Z,25.87
2022-08-28T21:33:01.905Z,25.66
2022-08-28T21:35:29.250Z,25.55
2022-08-28T21:37:56.185Z,25.64
2022-08-28T21:40:23.333Z,25.68
2022-08-28T21:42:50.419Z,25.68
2022-08-28T21:45:18.418Z,25.65
2022-08-28T21:47:45.375Z,25.78
2022-08-28T21:50:12.510Z,25.94
2022-08-28T21:52:40.061Z,25.81
2022-08-28T21:55:10.921Z,25.78
2022-08-28T21:57:37.955Z,25.75
2022-08-28T22:00:23.486Z,25.73
2022-08-28T22:02:50.543Z,25.41
2022-08-28T22:05:17.642Z,25.39
2022-08-28T22:07:45.185Z,25.44
2022-08-28T22:10:12.409Z,25.57
2022-08-28T22:12:39.393Z,25.87
2022-08-28T22:15:06.781Z,25.73
2022-08-28T22:17:33.793Z,25.72
2022-08-28T22:20:00.720Z,25.65
2022-08-28T22:22:45.999Z,25.55
2022-08-28T22:25:13.024Z,25.36
2022-08-28T22:27:39.951Z,25.32
2022-08-28T22:30:07.440Z,25.46
2022-08-28T22:32:34.490Z,25.44
2022-08-28T22:35:01.469Z,25.43
2022-08-28T22:37:28.452Z,25.36
2022-08-28T22:39:55.521Z,25.63
2022-08-28T22:42:23.172Z,25.72
2022-08-28T22:44:50.242Z,25.73
2022-08-28T22:47:18.867Z,25.53
2022-08-28T22:49:46.157Z,25.61
2022-08-28T22:52:13.239Z,25.32
2022-08-28T22:54:40.179Z,25.17
2022-08-28T22:57:07.392Z,25.42
2022-08-28T22:59:34.871Z,25.33
2022-08-28T23:02:01.816Z,25.44
2022-08-28T23:04:28.816Z,25.36
2022-08-28T23:06:55.923Z,24.66
2022-08-28T23:09:22.884Z,24.37
2022-08-28T23:11:49.886Z,24.33
2022-08-28T23:14:16.968Z,24.08
2022-08-28T23:16:44.702Z,24.26
2022-08-28T23:19:13.329Z,24.49
2022-08-28T23:21:43.998Z,24.53
2022-08-28T23:24:12.863Z,24.47
2022-08-28T23:26:40.270Z,24.80
2022-08-28T23:29:07.180Z,24.86
2022-08-28T23:31:34.294Z,25.27
2022-08-28T23:34:01.929Z,25.42
2022-08-28T23:36:29.109Z,25.51
2022-08-28T23:38:56.637Z,25.38
2022-08-28T23:41:24.601Z,25.33
2022-08-28T23:43:51.954Z,24.60
2022-08-28T23:46:20.802Z,24.57
2022-08-28T23:48:49.514Z,24.10
2022-08-28T23:51:17.091Z,23.91
2022-08-28T23:53:44.499Z,23.11
2022-08-28T23:56:12.979Z,22.81
2022-08-28T23:58:40.428Z,22.67
